Time;durP1;ratioP1;P1;durP2;ratioP2;P2;SDS_P1;SDS_P2;PMS_P1;PMS_P2;Temp;Humidity;BMP_temperature;BMP_pressure;BME280_temperature;BME280_humidity;BME280_pressure;Samples;Min_cycle;Max_cycle;Signal;HPM_P1;HPM_P2
2022/06/30 04:32:54;;;;;;;;;1.50;1.50;;;;;17.47;63.89;100926.78;5015645;28;45330;-73
2022/06/30 04:35:20;;;;;;;;;1.25;1.25;;;;;17.42;63.98;100928.09;5015500;28;49762;-75
2022/06/30 04:37:45;;;;;;;;;3.75;2.25;;;;;17.54;64.61;100940.75;5015227;28;45215;-74
2022/06/30 04:42:54;;;;;;;;;2.25;2.00;;;;;17.34;65.51;100909.69;5015956;28;45227;-72
2022/06/30 04:45:20;;;;;;;;;2.00;2.00;;;;;17.48;65.52;100930.34;5015464;28;45572;-74
2022/06/30 04:47:45;;;;;;;;;1.75;1.75;;;;;17.52;66.18;100930.03;5015836;28;45460;-73
2022/06/30 04:50:11;;;;;;;;;2.00;2.00;;;;;17.56;65.59;100915.28;5014283;28;45354;-75
2022/06/30 04:52:36;;;;;;;;;2.00;2.00;;;;;17.60;65.94;100921.34;5014619;28;45514;-74
2022/06/30 04:55:02;;;;;;;;;1.50;1.50;;;;;17.54;65.62;100925.34;5009975;28;46194;-73
2022/06/30 04:57:27;;;;;;;;;4.00;2.00;;;;;17.44;65.92;100905.31;4996097;28;45290;-73
2022/06/30 04:59:53;;;;;;;;;1.00;1.00;;;;;17.48;66.44;100898.69;4995790;28;45485;-73
2022/06/30 05:02:18;;;;;;;;;2.50;2.00;;;;;17.53;65.69;100888.38;4994872;28;45540;-73
2022/06/30 05:04:43;;;;;;;;;3.00;3.00;;;;;17.59;65.40;100885.25;4995283;28;46106;-74
2022/06/30 05:07:09;;;;;;;;;2.00;2.00;;;;;17.58;64.97;100879.94;4995889;28;45243;-75
2022/06/30 05:09:35;;;;;;;;;3.00;3.00;;;;;17.57;64.77;100875.47;4977964;28;45496;-72
2022/06/30 05:12:00;;;;;;;;;5.00;4.00;;;;;17.70;65.78;100895.31;4978035;28;45444;-73
2022/06/30 05:14:25;;;;;;;;;3.00;1.00;;;;;17.64;65.14;100895.78;4995572;28;45393;-73
2022/06/30 05:16:51;;;;;;;;;2.25;2.25;;;;;17.64;65.83;100906.63;4995669;28;45293;-73
2022/06/30 05:19:16;;;;;;;;;2.00;2.00;;;;;17.63;65.55;100891.31;4995323;28;45662;-74
2022/06/30 05:21:42;;;;;;;;;3.00;2.00;;;;;17.66;64.86;100889.28;4995588;28;45422;-74
2022/06/30 05:26:51;;;;;;;;;2.25;0.75;;;;;17.73;65.17;100905.94;4995250;28;45570;-72
2022/06/30 05:29:16;;;;;;;;;2.50;2.50;;;;;17.76;64.55;100911.16;4995309;28;45306;-74
2022/06/30 05:31:41;;;;;;;;;5.75;3.00;;;;;17.75;65.03;100913.00;4998741;28;45358;-74
2022/06/30 05:34:07;;;;;;;;;5.00;3.25;;;;;17.81;64.95;100919.81;5014461;28;45397;-74
2022/06/30 05:36:33;;;;;;;;;4.00;2.00;;;;;17.73;65.06;100909.53;5015170;28;45307;-74
2022/06/30 05:38:58;;;;;;;;;2.00;2.00;;;;;17.78;65.14;100920.91;5014731;28;45574;-70
2022/06/30 05:41:24;;;;;;;;;3.00;3.00;;;;;17.77;64.63;100915.59;5014903;28;45530;-70
2022/06/30 05:43:51;;;;;;;;;2.50;2.00;;;;;17.76;64.88;100920.16;5014755;28;45475;-70
2022/06/30 05:46:16;;;;;;;;;3.00;3.00;;;;;17.72;65.19;100915.06;5034149;28;45563;-68
2022/06/30 05:48:41;;;;;;;;;3.00;2.50;;;;;17.64;65.38;100918.34;5033076;28;45406;-70
2022/06/30 05:51:07;;;;;;;;;3.00;1.75;;;;;17.69;65.01;100932.41;5034649;28;45415;-69
2022/06/30 05:53:32;;;;;;;;;1.75;1.75;;;;;17.74;65.04;100926.66;5034224;28;45307;-69
2022/06/30 05:55:57;;;;;;;;;2.50;2.50;;;;;17.77;64.51;100935.47;5002136;28;45492;-71
2022/06/30 05:58:24;;;;;;;;;1.25;1.25;;;;;17.81;64.90;100925.25;5017540;28;45344;-69
2022/06/30 06:00:49;;;;;;;;;2.00;2.00;;;;;17.88;65.46;100928.38;5032486;28;45505;-70
2022/06/30 06:03:15;;;;;;;;;3.50;3.50;;;;;17.93;65.62;100928.91;5031043;28;46842;-69
2022/06/30 06:05:40;;;;;;;;;2.00;2.00;;;;;17.96;66.40;100931.38;5034121;28;45370;-71
2022/06/30 06:08:07;;;;;;;;;4.50;3.00;;;;;17.98;66.35;100932.13;5034694;28;45254;-70
2022/06/30 06:10:33;;;;;;;;;4.25;2.75;;;;;17.97;66.01;100925.84;5034452;28;45312;-69
2022/06/30 06:12:58;;;;;;;;;3.00;3.00;;;;;18.03;66.42;100921.84;5034012;28;46020;-69
2022/06/30 06:15:23;;;;;;;;;3.00;2.25;;;;;18.07;66.07;100931.47;5034574;28;45361;-69
2022/06/30 06:17:49;;;;;;;;;2.00;2.00;;;;;18.07;66.10;100934.16;5016184;28;45393;-69
2022/06/30 06:20:16;;;;;;;;;2.00;2.00;;;;;18.06;65.81;100927.00;5016227;28;46437;-70
2022/06/30 06:22:43;;;;;;;;;5.00;4.00;;;;;17.99;65.52;100933.88;5034174;28;45922;-69
2022/06/30 06:25:09;;;;;;;;;4.75;3.00;;;;;17.86;65.46;100920.38;5034518;28;45364;-70
2022/06/30 06:27:35;;;;;;;;;5.00;3.50;;;;;17.78;65.54;100910.03;5034239;28;45431;-70
2022/06/30 06:30:05;;;;;;;;;5.00;3.25;;;;;17.81;66.40;100922.53;5034235;28;45413;-69
2022/06/30 06:32:31;;;;;;;;;3.00;3.00;;;;;17.81;66.00;100932.50;5033693;28;45332;-69
2022/06/30 06:34:57;;;;;;;;;4.00;2.75;;;;;17.78;65.97;100931.75;5033864;28;45472;-70
2022/06/30 06:37:22;;;;;;;;;4.00;4.00;;;;;17.76;66.26;100919.28;5034040;28;45353;-70
2022/06/30 06:39:47;;;;;;;;;3.00;3.00;;;;;17.79;66.28;100932.59;5034106;28;45525;-70
2022/06/30 06:42:13;;;;;;;;;3.00;3.00;;;;;17.75;66.37;100929.28;5033857;28;46275;-70
2022/06/30 06:44:38;;;;;;;;;4.00;4.00;;;;;17.80;65.87;100936.19;5034250;28;45415;-69
2022/06/30 06:47:03;;;;;;;;;4.00;3.00;;;;;17.81;66.03;100948.78;5033867;28;45246;-70
2022/06/30 06:49:30;;;;;;;;;3.25;3.25;;;;;17.74;66.29;100957.38;5033733;28;45331;-70
2022/06/30 06:51:56;;;;;;;;;2.50;2.50;;;;;17.69;66.09;100954.09;5015849;28;46433;-70
2022/06/30 06:54:21;;;;;;;;;4.50;3.25;;;;;17.69;66.39;100967.66;5033790;28;45357;-71
2022/06/30 06:56:46;;;;;;;;;3.25;3.25;;;;;17.67;66.54;100966.94;5020599;28;45635;-69
2022/06/30 06:59:12;;;;;;;;;4.00;4.00;;;;;17.64;67.08;100977.09;5033889;28;45694;-70
2022/06/30 07:01:37;;;;;;;;;3.75;3.75;;;;;17.64;67.08;100974.41;5037323;28;45355;-70
2022/06/30 07:04:03;;;;;;;;;3.00;3.00;;;;;17.52;67.98;100970.72;5037338;28;45478;-70
2022/06/30 07:06:28;;;;;;;;;4.00;4.00;;;;;17.57;67.67;100992.91;5037344;28;45543;-70
2022/06/30 07:08:54;;;;;;;;;4.50;3.00;;;;;17.55;67.82;100994.00;5037071;28;45360;-70
2022/06/30 07:11:19;;;;;;;;;5.00;3.00;;;;;17.54;68.31;100997.69;5036872;28;46553;-70
2022/06/30 07:13:44;;;;;;;;;4.00;4.00;;;;;17.57;68.33;100994.75;5037200;28;45424;-69
2022/06/30 07:16:10;;;;;;;;;5.50;4.00;;;;;17.54;68.79;100997.69;5037102;28;45266;-70
2022/06/30 07:18:35;;;;;;;;;5.00;5.00;;;;;17.49;68.44;100986.31;5036504;28;45314;-70
2022/06/30 07:21:01;;;;;;;;;6.75;4.00;;;;;17.51;68.63;100987.94;5036618;28;45943;-69
2022/06/30 07:23:26;;;;;;;;;3.25;3.25;;;;;17.50;67.95;100986.22;5036858;28;45652;-71
2022/06/30 07:25:51;;;;;;;;;4.75;4.00;;;;;17.50;68.06;100997.06;5036998;28;45470;-70
2022/06/30 07:28:17;;;;;;;;;3.00;3.00;;;;;17.47;68.78;100981.00;5036967;28;45277;-70
2022/06/30 07:30:42;;;;;;;;;5.50;4.00;;;;;17.52;68.01;100986.09;5036789;28;45431;-70
2022/06/30 07:33:08;;;;;;;;;3.00;3.00;;;;;17.54;68.06;100992.25;5037076;28;45317;-70
2022/06/30 07:35:33;;;;;;;;;4.00;3.25;;;;;17.46;68.34;100978.38;5036471;28;45558;-69
2022/06/30 07:37:59;;;;;;;;;7.00;4.00;;;;;17.48;68.09;100981.84;5036840;28;45318;-70
2022/06/30 07:40:24;;;;;;;;;6.50;4.25;;;;;17.42;67.94;100985.00;5036624;28;46055;-70
2022/06/30 07:42:50;;;;;;;;;5.25;3.50;;;;;17.32;68.04;100982.06;5036961;28;45307;-69
2022/06/30 07:45:15;;;;;;;;;5.00;3.50;;;;;17.24;68.19;100979.03;5036858;28;45396;-70
2022/06/30 07:47:43;;;;;;;;;7.75;4.00;;;;;17.20;69.90;100991.03;5018798;28;45376;-70
2022/06/30 07:50:09;;;;;;;;;5.50;4.00;;;;;17.12;69.43;100980.75;5036385;28;45514;-70
2022/06/30 07:52:34;;;;;;;;;5.75;4.00;;;;;17.12;69.75;100996.13;5036748;28;45318;-70
2022/06/30 07:55:00;;;;;;;;;8.00;6.00;;;;;17.15;70.08;100991.38;5013965;28;45347;-70
2022/06/30 07:57:27;;;;;;;;;5.75;4.00;;;;;17.17;69.49;100985.88;5028984;28;45597;-70
2022/06/30 07:59:52;;;;;;;;;2.75;2.50;;;;;17.26;70.09;100993.34;5036780;28;46739;-71
2022/06/30 08:02:18;;;;;;;;;4.50;4.50;;;;;17.22;68.94;100983.69;5036016;28;45201;-70
2022/06/30 08:04:43;;;;;;;;;4.00;4.00;;;;;17.05;69.83;100984.84;5036296;28;45249;-70
2022/06/30 08:07:09;;;;;;;;;5.25;3.75;;;;;16.96;70.18;100972.81;5036239;28;45487;-70
2022/06/30 08:09:34;;;;;;;;;4.50;4.50;;;;;16.94;70.72;100993.72;5018210;28;47835;-70
2022/06/30 08:12:00;;;;;;;;;3.25;2.25;;;;;16.83;70.56;100987.31;5035510;28;45579;-70
2022/06/30 08:14:25;;;;;;;;;3.00;3.00;;;;;16.79;69.76;100991.19;5036091;28;45489;-70
2022/06/30 08:16:51;;;;;;;;;3.00;3.00;;;;;16.69;68.67;100987.34;5036325;28;45517;-71
2022/06/30 08:19:17;;;;;;;;;2.00;2.00;;;;;16.62;69.17;100990.50;5035839;28;46142;-70
2022/06/30 08:21:42;;;;;;;;;2.00;2.00;;;;;16.64;69.40;100990.38;5036335;28;45328;-70
2022/06/30 08:24:08;;;;;;;;;3.00;3.00;;;;;16.60;69.78;100984.25;5036106;28;45382;-70
2022/06/30 08:26:33;;;;;;;;;4.00;4.00;;;;;16.50;70.23;100972.31;5036113;28;45566;-70
2022/06/30 08:28:59;;;;;;;;;3.50;3.50;;;;;16.42;71.68;100968.38;5035807;28;45306;-70
2022/06/30 08:31:24;;;;;;;;;2.75;2.50;;;;;16.47;71.85;100974.38;5036127;28;45695;-70
2022/06/30 08:33:52;;;;;;;;;2.00;2.00;;;;;16.44;71.40;100959.19;5022574;28;45323;-70
2022/06/30 08:36:18;;;;;;;;;3.50;2.50;;;;;16.62;71.09;100970.66;5036075;28;45186;-69
2022/06/30 08:38:43;;;;;;;;;3.00;3.00;;;;;16.72;70.80;100966.38;5035442;28;46142;-69
2022/06/30 08:44:00;;;;;;;;;3.75;3.00;;;;;16.64;69.63;100969.59;5019784;28;45462;-70
2022/06/30 08:46:27;;;;;;;;;4.00;4.00;;;;;16.59;70.28;100957.28;5035764;28;45455;-71
2022/06/30 08:48:53;;;;;;;;;3.00;3.00;;;;;16.57;69.87;100951.13;5035591;28;45629;-70
2022/06/30 08:51:20;;;;;;;;;2.25;2.25;;;;;16.55;70.58;100958.50;5035678;28;45187;-70
2022/06/30 08:53:49;;;;;;;;;1.00;1.00;;;;;16.52;69.64;100962.25;5035840;28;45507;-68
2022/06/30 08:56:15;;;;;;;;;2.75;2.00;;;;;16.54;70.09;100960.31;5022088;28;45578;-69
2022/06/30 08:58:42;;;;;;;;;3.00;2.00;;;;;16.43;69.76;100943.94;5035726;28;45228;-71
2022/06/30 09:01:07;;;;;;;;;1.00;1.00;;;;;16.46;70.14;100956.41;5035551;28;45267;-70
2022/06/30 09:03:34;;;;;;;;;2.50;2.50;;;;;16.43;70.00;100948.47;5035526;28;45360;-70
2022/06/30 09:06:00;;;;;;;;;5.25;3.75;;;;;16.37;69.91;100930.81;5035588;28;45578;-69
2022/06/30 09:08:26;;;;;;;;;1.00;1.00;;;;;16.42;69.13;100933.19;5035120;28;46229;-70
2022/06/30 09:10:54;;;;;;;;;2.00;2.00;;;;;16.41;68.74;100940.47;5035336;28;45939;-70
2022/06/30 09:13:20;;;;;;;;;2.00;2.00;;;;;16.42;68.13;100935.91;5035678;28;45373;-70
2022/06/30 09:15:48;;;;;;;;;1.75;1.50;;;;;16.45;68.83;100931.16;5035239;28;45270;-70
2022/06/30 09:18:27;;;;;;;;;3.00;3.00;;;;;16.56;68.07;100933.16;5016876;28;47709;-70
2022/06/30 09:20:53;;;;;;;;;2.00;2.00;;;;;16.56;67.90;100936.75;5035065;28;45365;-71
2022/06/30 09:23:26;;;;;;;;;2.00;0.25;;;;;16.62;67.93;100946.31;5035206;28;45343;-71
2022/06/30 09:25:54;;;;;;;;;2.50;2.00;;;;;16.57;67.84;100953.84;5034974;28;45341;-69
2022/06/30 09:28:38;;;;;;;;;1.00;1.00;;;;;16.56;67.56;100963.81;5035146;28;45345;-70
2022/06/30 09:31:03;;;;;;;;;3.00;1.00;;;;;16.56;68.18;100962.94;5034971;28;45466;-71
2022/06/30 09:33:36;;;;;;;;;1.75;1.75;;;;;16.55;68.33;100969.31;5034780;28;45325;-70
2022/06/30 09:36:22;;;;;;;;;1.00;1.00;;;;;16.53;67.88;100980.25;5035088;28;45628;-71
2022/06/30 09:39:09;;;;;;;;;1.00;1.00;;;;;16.44;68.40;100961.03;5034624;28;47096;-69
2022/06/30 09:41:36;;;;;;;;;1.50;1.50;;;;;16.54;67.72;100973.84;5035002;28;45392;-69
2022/06/30 09:44:07;;;;;;;;;2.00;2.00;;;;;16.43;68.37;100954.75;5035087;28;45234;-70
2022/06/30 09:46:36;;;;;;;;;1.50;1.50;;;;;16.56;69.75;100971.06;5034655;28;45395;-70
2022/06/30 09:49:03;;;;;;;;;0.50;0.50;;;;;16.61;69.66;100971.63;5034656;28;45267;-70
2022/06/30 09:51:31;;;;;;;;;1.00;1.00;;;;;16.61;69.07;100950.84;5034706;28;45355;-69
2022/06/30 09:54:10;;;;;;;;;1.50;1.50;;;;;16.76;68.76;100980.59;5016899;28;45315;-69
2022/06/30 09:56:36;;;;;;;;;2.00;2.00;;;;;16.72;69.38;100985.31;5021078;28;45559;-70
2022/06/30 09:59:04;;;;;;;;;1.00;1.00;;;;;16.64;69.20;100975.00;5034703;28;46012;-69
2022/06/30 10:01:50;;;;;;;;;2.00;2.00;;;;;16.67;68.14;100967.66;5034273;28;45304;-71
2022/06/30 10:04:17;;;;;;;;;3.00;3.00;;;;;16.74;68.76;100974.41;5034848;28;45364;-70
2022/06/30 10:06:44;;;;;;;;;1.75;1.75;;;;;16.79;69.29;100964.97;5034704;28;45341;-69
2022/06/30 10:09:11;;;;;;;;;2.00;1.00;;;;;16.86;68.53;100973.53;5034140;28;46639;-70
2022/06/30 10:11:36;;;;;;;;;2.25;2.00;;;;;16.90;68.21;100980.50;5034337;28;45202;-70
2022/06/30 10:14:02;;;;;;;;;2.25;2.25;;;;;16.86;68.59;100982.53;5034243;28;45507;-69
2022/06/30 10:16:29;;;;;;;;;2.00;2.00;;;;;16.84;69.18;100995.31;5034445;28;45352;-69
2022/06/30 10:18:54;;;;;;;;;2.00;2.00;;;;;16.79;66.70;100993.91;5033962;28;46540;-70
2022/06/30 10:21:21;;;;;;;;;3.75;2.75;;;;;16.62;67.41;100993.19;5034485;28;45225;-70
2022/06/30 10:23:49;;;;;;;;;2.00;1.00;;;;;16.53;68.25;100987.50;5034192;28;45351;-69
2022/06/30 10:28:58;;;;;;;;;2.25;2.25;;;;;16.54;70.05;101008.19;5034308;28;45711;-69
2022/06/30 10:31:34;;;;;;;;;2.50;2.50;;;;;16.48;70.72;101008.59;5033845;28;45283;-71
2022/06/30 10:34:09;;;;;;;;;2.00;2.00;;;;;16.54;70.94;101009.03;5033910;28;45404;-68
2022/06/30 10:36:44;;;;;;;;;2.00;2.00;;;;;16.61;71.16;101013.09;5036305;28;45410;-70
2022/06/30 10:39:32;;;;;;;;;2.25;2.25;;;;;16.57;70.72;101005.28;5037655;28;45937;-71
2022/06/30 10:41:57;;;;;;;;;7.50;3.25;;;;;16.61;70.42;101006.81;5037558;28;45367;-71
2022/06/30 10:44:24;;;;;;;;;3.00;3.00;;;;;16.63;70.51;101016.59;5037750;28;45538;-70
2022/06/30 10:46:56;;;;;;;;;7.00;5.00;;;;;16.64;70.17;101020.16;5037506;28;45500;-70
2022/06/30 10:49:24;;;;;;;;;4.50;4.50;;;;;16.61;71.11;101014.94;5037258;28;45821;-69
2022/06/30 10:51:54;;;;;;;;;2.00;2.00;;;;;16.62;71.33;101028.38;5037426;28;45491;-70
2022/06/30 10:54:35;;;;;;;;;4.00;3.00;;;;;16.60;70.62;101015.88;5037509;28;45353;-69
2022/06/30 10:57:01;;;;;;;;;5.25;2.00;;;;;16.70;71.06;101040.53;5014166;28;45465;-70
2022/06/30 10:59:28;;;;;;;;;2.75;2.50;;;;;16.74;71.18;101050.22;5037350;28;46032;-70
2022/06/30 11:02:08;;;;;;;;;3.50;3.50;;;;;16.76;71.55;101050.97;5036863;28;45383;-70
2022/06/30 11:04:38;;;;;;;;;7.75;7.25;;;;;16.77;72.05;101047.28;5036848;28;45218;-70
2022/06/30 11:07:08;;;;;;;;;3.00;3.00;;;;;16.83;71.40;101041.47;5037386;28;45418;-70
2022/06/30 11:09:49;;;;;;;;;4.50;3.25;;;;;16.88;70.83;101048.31;5036636;28;45378;-70
2022/06/30 11:12:41;;;;;;;;;2.50;2.50;;;;;16.81;70.62;101038.88;5037129;28;45366;-70
2022/06/30 11:15:06;;;;;;;;;3.75;3.00;;;;;16.86;70.66;101039.41;5037175;28;45453;-70
2022/06/30 11:17:36;;;;;;;;;2.50;2.00;;;;;16.83;70.37;101033.34;5036764;28;45344;-70
2022/06/30 11:20:07;;;;;;;;;3.00;3.00;;;;;16.85;69.84;101045.78;5037120;28;46123;-69
2022/06/30 11:22:34;;;;;;;;;4.00;4.00;;;;;16.79;70.43;101048.03;5005651;28;45290;-70
2022/06/30 11:25:05;;;;;;;;;3.00;3.00;;;;;16.77;69.66;101049.97;5037028;28;45384;-71
2022/06/30 11:27:33;;;;;;;;;2.50;2.50;;;;;16.70;70.31;101027.88;5036838;28;46484;-70
2022/06/30 11:30:04;;;;;;;;;5.50;3.00;;;;;16.80;70.89;101031.69;5036987;28;46013;-69
2022/06/30 11:32:30;;;;;;;;;3.75;3.75;;;;;16.89;70.13;101022.09;5018971;28;45578;-70
2022/06/30 11:34:57;;;;;;;;;4.25;2.50;;;;;16.96;70.07;101013.44;5036746;28;45379;-70
2022/06/30 11:37:28;;;;;;;;;2.00;2.00;;;;;17.05;69.67;101025.50;5036900;28;45328;-71
2022/06/30 11:39:57;;;;;;;;;3.00;3.00;;;;;17.08;68.94;101019.00;5036629;28;45490;-70
2022/06/30 11:42:23;;;;;;;;;2.75;2.50;;;;;17.08;67.75;101030.72;5036695;28;45321;-70
2022/06/30 11:44:49;;;;;;;;;2.25;2.25;;;;;17.01;69.42;101022.09;5036685;28;45421;-69
2022/06/30 11:47:16;;;;;;;;;4.00;4.00;;;;;17.10;69.49;101026.03;5036854;28;45317;-70
2022/06/30 11:49:45;;;;;;;;;3.25;3.25;;;;;17.09;70.18;101018.91;5036589;28;45344;-71
2022/06/30 11:52:15;;;;;;;;;4.00;3.00;;;;;17.13;69.73;101027.66;5036809;28;45401;-70
2022/06/30 11:54:43;;;;;;;;;3.00;3.00;;;;;17.11;68.73;101025.06;5034104;28;45463;-70
2022/06/30 11:57:08;;;;;;;;;2.00;2.00;;;;;17.01;68.78;101008.56;5026024;28;45351;-70
2022/06/30 11:59:34;;;;;;;;;1.00;1.00;;;;;17.06;69.39;101008.28;5036405;28;45338;-70
2022/06/30 12:02:04;;;;;;;;;1.75;1.75;;;;;17.09;68.79;101007.19;5027163;28;45741;-69
2022/06/30 12:04:30;;;;;;;;;2.00;2.00;;;;;17.13;69.36;101000.59;5033166;28;45282;-69
2022/06/30 12:06:56;;;;;;;;;4.25;4.25;;;;;17.29;69.33;100988.56;5018387;28;46950;-70
2022/06/30 12:09:21;;;;;;;;;4.00;3.00;;;;;17.37;68.71;100963.63;5036028;28;46710;-70
2022/06/30 12:11:46;;;;;;;;;3.00;3.00;;;;;17.61;68.21;100953.75;5036320;28;45358;-69
2022/06/30 12:14:12;;;;;;;;;4.25;1.25;;;;;17.75;66.93;100967.25;5036407;28;45348;-70
2022/06/30 12:16:38;;;;;;;;;2.00;2.00;;;;;17.86;64.93;100968.31;5036338;28;45346;-70
2022/06/30 12:19:03;;;;;;;;;2.00;2.00;;;;;17.91;64.19;100987.81;5022628;28;45333;-69
2022/06/30 12:21:29;;;;;;;;;5.00;2.00;;;;;17.89;64.59;101011.47;5036275;28;45237;-71
2022/06/30 12:23:55;;;;;;;;;1.50;1.25;;;;;17.89;64.39;101039.47;5036217;28;45340;-69
2022/06/30 12:26:21;;;;;;;;;2.00;2.00;;;;;17.75;64.13;101039.59;5035817;28;45597;-70
2022/06/30 12:28:51;;;;;;;;;2.25;2.00;;;;;17.67;64.37;101053.69;5035792;28;45916;-70
2022/06/30 12:31:27;;;;;;;;;0.75;0.75;;;;;17.49;64.27;101045.94;5035883;28;45276;-71
2022/06/30 12:33:54;;;;;;;;;3.75;2.00;;;;;17.46;65.55;101055.16;5035581;28;45431;-70
2022/06/30 12:36:21;;;;;;;;;1.00;1.00;;;;;17.45;64.87;101048.00;5035918;28;45478;-70
2022/06/30 12:38:47;;;;;;;;;2.25;2.25;;;;;17.45;65.57;101042.56;5035494;28;45561;-70
2022/06/30 12:41:13;;;;;;;;;2.25;2.25;;;;;17.43;65.49;101041.84;5017903;28;45424;-70
2022/06/30 12:43:47;;;;;;;;;0.00;0.00;;;;;17.43;64.53;101028.28;5035987;28;45309;-71
2022/06/30 12:46:15;;;;;;;;;1.00;1.00;;;;;17.45;64.29;101011.88;5022305;28;45472;-70
2022/06/30 12:48:45;;;;;;;;;0.50;0.50;;;;;17.56;63.39;101015.59;5035372;28;46025;-69
2022/06/30 12:51:40;;;;;;;;;1.00;1.00;;;;;17.59;62.74;101028.06;5035717;28;45356;-69
2022/06/30 12:54:08;;;;;;;;;1.25;1.25;;;;;17.62;63.34;101036.00;5017903;28;45271;-71
2022/06/30 12:56:35;;;;;;;;;2.00;1.00;;;;;17.68;63.21;101043.72;5021686;28;45412;-69
2022/06/30 12:59:11;;;;;;;;;1.00;1.00;;;;;17.78;64.03;101033.94;5034825;28;46294;-70
2022/06/30 13:01:42;;;;;;;;;2.50;2.50;;;;;17.73;63.58;101033.41;5035163;28;45390;-70
2022/06/30 13:04:09;;;;;;;;;0.00;0.00;;;;;17.77;64.38;101043.06;5035349;28;45373;-70
2022/06/30 13:06:39;;;;;;;;;2.75;2.00;;;;;17.78;64.20;101039.34;5035590;28;45526;-70
2022/06/30 13:09:07;;;;;;;;;1.00;1.00;;;;;17.79;64.81;101030.25;5022091;28;46264;-70
2022/06/30 13:11:36;;;;;;;;;1.50;1.50;;;;;17.79;64.90;101030.25;5035014;28;45387;-70
2022/06/30 13:14:03;;;;;;;;;2.00;2.00;;;;;17.78;65.07;101015.81;5035461;28;45305;-70
2022/06/30 13:16:32;;;;;;;;;1.00;1.00;;;;;18.02;64.40;101023.19;5035666;28;45653;-70
2022/06/30 13:18:59;;;;;;;;;2.00;2.00;;;;;18.08;63.65;101037.16;5035024;28;46220;-69
2022/06/30 13:21:25;;;;;;;;;2.75;1.50;;;;;18.08;64.05;101031.75;5035459;28;45324;-70
2022/06/30 13:23:51;;;;;;;;;1.75;1.75;;;;;18.16;63.42;101039.31;5035241;28;45222;-69
2022/06/30 13:26:17;;;;;;;;;2.50;1.00;;;;;18.17;62.98;101035.63;5034941;28;45475;-70
2022/06/30 13:28:43;;;;;;;;;1.00;1.00;;;;;18.26;62.76;101044.94;5035121;28;45265;-70
2022/06/30 13:31:08;;;;;;;;;1.50;1.00;;;;;18.32;62.12;101034.50;5035124;28;45191;-70
2022/06/30 13:33:35;;;;;;;;;1.00;1.00;;;;;18.36;60.84;101046.03;5035092;28;45439;-70
2022/06/30 13:36:04;;;;;;;;;4.50;2.25;;;;;18.30;60.92;101041.00;5034990;28;45215;-69
2022/06/30 13:38:30;;;;;;;;;3.75;1.50;;;;;18.41;61.38;101035.69;5034467;28;45426;-69
2022/06/30 13:40:57;;;;;;;;;3.00;2.00;;;;;18.50;60.18;101041.28;5034959;28;45390;-70
2022/06/30 13:43:23;;;;;;;;;2.00;2.00;;;;;18.59;59.97;101039.78;5034909;28;45305;-70
2022/06/30 13:45:49;;;;;;;;;2.00;2.00;;;;;18.75;60.59;101045.78;5016705;28;45455;-71
2022/06/30 13:48:15;;;;;;;;;2.00;2.00;;;;;18.84;60.02;101038.81;5034528;28;45920;-70
2022/06/30 13:50:40;;;;;;;;;3.00;2.00;;;;;19.04;60.64;101042.72;5034932;28;45436;-70
2022/06/30 13:53:07;;;;;;;;;2.25;1.00;;;;;19.16;59.12;101029.06;5034673;28;45372;-70
2022/06/30 13:55:33;;;;;;;;;1.25;1.25;;;;;19.38;59.08;101028.28;5025029;28;45394;-70
2022/06/30 13:58:01;;;;;;;;;2.00;2.00;;;;;19.46;56.87;101025.81;5030775;28;46198;-69
2022/06/30 14:00:27;;;;;;;;;1.50;1.00;;;;;19.50;57.48;101037.34;5034792;28;45246;-70
2022/06/30 14:02:53;;;;;;;;;1.00;1.00;;;;;19.45;56.89;101028.66;5034612;28;45396;-70
2022/06/30 14:05:19;;;;;;;;;1.00;1.00;;;;;19.60;56.78;101036.50;5034618;28;45222;-69
2022/06/30 14:07:44;;;;;;;;;2.75;2.75;;;;;19.66;56.35;101024.25;5034329;28;45343;-70
2022/06/30 14:10:11;;;;;;;;;1.75;1.75;;;;;19.66;55.34;101018.81;5033674;28;45463;-70
2022/06/30 14:12:38;;;;;;;;;2.00;2.00;;;;;19.80;55.25;101028.63;5034490;28;45379;-70
2022/06/30 14:15:05;;;;;;;;;1.50;1.50;;;;;19.85;54.94;101029.09;5016387;28;45439;-70
2022/06/30 14:17:30;;;;;;;;;2.00;2.00;;;;;19.89;55.54;101027.88;5020856;28;45522;-70
2022/06/30 14:19:58;;;;;;;;;1.75;1.75;;;;;19.98;55.46;101036.19;5034358;28;45324;-70
2022/06/30 14:22:24;;;;;;;;;1.00;1.00;;;;;19.88;56.37;101031.59;5034528;28;45380;-71
2022/06/30 14:24:49;;;;;;;;;1.25;1.25;;;;;19.86;55.04;101036.28;5034581;28;45319;-70
2022/06/30 14:27:15;;;;;;;;;2.50;2.50;;;;;19.81;55.86;101047.53;5034179;28;45423;-70
2022/06/30 14:29:42;;;;;;;;;1.00;1.00;;;;;19.76;56.47;101051.59;5034493;28;45286;-70
2022/06/30 14:32:08;;;;;;;;;2.00;2.00;;;;;19.61;56.89;101042.81;5016149;28;45480;-69
2022/06/30 14:34:36;;;;;;;;;1.00;1.00;;;;;19.68;56.31;101044.03;5033976;28;45380;-70
2022/06/30 14:37:02;;;;;;;;;2.00;2.00;;;;;19.68;56.73;101029.56;5034156;28;46973;-70
2022/06/30 14:39:28;;;;;;;;;2.00;2.00;;;;;19.55;56.78;101046.00;5033948;28;45387;-70
2022/06/30 14:44:37;;;;;;;;;2.00;2.00;;;;;19.45;57.61;101034.97;5033981;28;45332;-70
2022/06/30 14:47:02;;;;;;;;;1.25;1.25;;;;;19.47;57.28;101045.72;5034067;28;46008;-70
2022/06/30 14:49:28;;;;;;;;;1.75;1.75;;;;;19.41;57.25;101040.75;5033771;28;45333;-70
2022/06/30 14:51:53;;;;;;;;;2.00;2.00;;;;;19.47;57.67;101051.16;5034347;28;45382;-69
2022/06/30 14:54:19;;;;;;;;;1.00;1.00;;;;;19.33;58.46;101027.75;5033994;28;45494;-70
2022/06/30 14:56:45;;;;;;;;;1.50;1.50;;;;;19.36;59.13;101027.50;5020211;28;46143;-69
2022/06/30 14:59:11;;;;;;;;;1.75;1.75;;;;;19.39;59.64;101037.28;5033968;28;45579;-69
2022/06/30 15:01:36;;;;;;;;;3.00;3.00;;;;;19.34;60.46;101037.63;5033515;28;45551;-70
2022/06/30 15:04:01;;;;;;;;;2.00;2.00;;;;;19.28;60.45;101041.72;5033533;28;45333;-70
2022/06/30 15:06:27;;;;;;;;;2.50;2.50;;;;;19.32;60.54;101052.31;5033556;28;46057;-69
2022/06/30 15:08:52;;;;;;;;;2.00;2.00;;;;;19.32;60.48;101052.31;5033854;28;45254;-70
2022/06/30 15:11:18;;;;;;;;;2.75;2.75;;;;;19.34;60.31;101050.34;5033680;28;45309;-69
2022/06/30 15:13:45;;;;;;;;;2.25;2.25;;;;;19.38;60.12;101046.44;5033645;28;45552;-70
2022/06/30 15:16:10;;;;;;;;;1.25;1.00;;;;;19.37;60.54;101059.16;5033603;28;45500;-71
2022/06/30 15:18:37;;;;;;;;;3.00;2.00;;;;;19.43;60.09;101060.53;5033517;28;45305;-70
2022/06/30 15:26:32;;;;;;;;;2.00;2.00;;;;;19.41;60.26;101028.00;5036980;28;45350;-70
2022/06/30 15:28:57;;;;;;;;;2.00;2.00;;;;;19.42;59.89;101032.47;5036758;28;45217;-69
2022/06/30 15:31:23;;;;;;;;;4.25;2.00;;;;;19.44;60.15;101024.19;5036970;28;45389;-70
2022/06/30 15:33:48;;;;;;;;;1.00;1.00;;;;;19.56;59.59;101039.59;5036479;28;45419;-69
2022/06/30 15:36:13;;;;;;;;;2.00;2.00;;;;;19.60;59.67;101047.38;5036993;28;46094;-70
2022/06/30 15:38:39;;;;;;;;;2.75;2.75;;;;;19.61;59.26;101038.22;5036557;28;45182;-72
2022/06/30 15:41:04;;;;;;;;;2.00;2.00;;;;;19.67;59.12;101034.16;5037168;28;45234;-71
2022/06/30 15:43:30;;;;;;;;;1.00;1.00;;;;;19.69;58.75;101025.88;5036768;28;45214;-69
2022/06/30 15:45:56;;;;;;;;;1.75;1.75;;;;;19.80;58.75;101029.47;5036681;28;45475;-69
2022/06/30 15:48:21;;;;;;;;;1.50;1.50;;;;;19.82;57.84;101027.47;5036464;28;45472;-70
2022/06/30 15:50:46;;;;;;;;;1.25;1.25;;;;;19.74;58.26;101004.59;5037105;28;45292;-70
2022/06/30 15:53:13;;;;;;;;;1.50;1.50;;;;;19.84;58.48;101017.34;5036568;28;45402;-70
2022/06/30 15:55:39;;;;;;;;;1.75;1.75;;;;;19.88;58.62;101018.84;5026136;28;45403;-70
2022/06/30 15:58:05;;;;;;;;;1.50;1.50;;;;;19.97;59.05;101020.84;5033620;28;45316;-70
2022/06/30 16:00:31;;;;;;;;;1.25;1.25;;;;;20.01;58.53;101014.13;5036776;28;45597;-71
2022/06/30 16:02:57;;;;;;;;;3.00;2.00;;;;;20.10;58.57;101022.53;5036160;28;45395;-71
2022/06/30 16:05:23;;;;;;;;;1.50;1.50;;;;;20.10;58.17;101017.97;5036571;28;46214;-69
2022/06/30 16:07:48;;;;;;;;;1.00;1.00;;;;;20.05;58.36;100983.97;5023129;28;45356;-70
2022/06/30 16:10:14;;;;;;;;;3.50;2.00;;;;;20.06;58.66;100983.84;5036818;28;45577;-71
2022/06/30 16:12:40;;;;;;;;;3.25;2.00;;;;;20.12;58.22;100993.34;5036318;28;45229;-70
2022/06/30 16:15:07;;;;;;;;;1.25;1.00;;;;;20.15;57.93;100990.38;5036419;28;46466;-71